sensor_id;sensor_type;location;lat;lon;timestamp;temperature;humidity
23079;DHT22;11707;50.830;4.364;2022-10-17T00:01:07;16.80;99.90
23079;DHT22;11707;50.830;4.364;2022-10-17T00:03:34;16.80;99.90
23079;DHT22;11707;50.830;4.364;2022-10-17T00:06:08;16.80;99.90
23079;DHT22;11707;50.830;4.364;2022-10-17T00:08:35;16.80;99.90
23079;DHT22;11707;50.830;4.364;2022-10-17T00:11:04;16.80;99.90
23079;DHT22;11707;50.830;4.364;2022-10-17T00:13:31;16.80;99.90
23079;DHT22;11707;50.830;4.364;2022-10-17T00:15:56;16.90;99.90
23079;DHT22;11707;50.830;4.364;2022-10-17T00:18:23;16.90;99.90
23079;DHT22;11707;50.830;4.364;2022-10-17T00:20:49;17.00;99.90
23079;DHT22;11707;50.830;4.364;2022-10-17T00:23:14;17.10;99.90
23079;DHT22;11707;50.830;4.364;2022-10-17T00:25:40;17.10;99.90
23079;DHT22;11707;50.830;4.364;2022-10-17T00:28:10;17.10;99.90
23079;DHT22;11707;50.830;4.364;2022-10-17T00:30:36;17.10;99.90
23079;DHT22;11707;50.830;4.364;2022-10-17T00:33:02;17.10;99.90
23079;DHT22;11707;50.830;4.364;2022-10-17T00:35:28;17.10;99.90
23079;DHT22;11707;50.830;4.364;2022-10-17T00:37:53;17.20;99.90
23079;DHT22;11707;50.830;4.364;2022-10-17T00:40:19;17.20;99.90
23079;DHT22;11707;50.830;4.364;2022-10-17T00:42:45;17.10;99.90
23079;DHT22;11707;50.830;4.364;2022-10-17T00:45:28;17.00;99.90
23079;DHT22;11707;50.830;4.364;2022-10-17T00:47:59;17.10;99.90
23079;DHT22;11707;50.830;4.364;2022-10-17T00:50:26;17.20;99.90
23079;DHT22;11707;50.830;4.364;2022-10-17T00:52:53;17.20;99.90
23079;DHT22;11707;50.830;4.364;2022-10-17T00:55:24;17.20;99.90
23079;DHT22;11707;50.830;4.364;2022-10-17T00:57:54;17.30;99.90
23079;DHT22;11707;50.830;4.364;2022-10-17T01:00:20;17.30;99.90
23079;DHT22;11707;50.830;4.364;2022-10-17T01:02:47;17.30;99.90
23079;DHT22;11707;50.830;4.364;2022-10-17T01:05:14;17.30;99.90
23079;DHT22;11707;50.830;4.364;2022-10-17T01:07:41;17.30;99.90
23079;DHT22;11707;50.830;4.364;2022-10-17T01:10:08;17.40;99.90
23079;DHT22;11707;50.830;4.364;2022-10-17T01:18:51;17.30;99.90
23079;DHT22;11707;50.830;4.364;2022-10-17T01:21:31;17.30;99.90
23079;DHT22;11707;50.830;4.364;2022-10-17T01:32:01;17.10;99.90
23079;DHT22;11707;50.830;4.364;2022-10-17T01:34:33;17.10;99.90
23079;DHT22;11707;50.830;4.364;2022-10-17T01:45:15;17.20;99.90
23079;DHT22;11707;50.830;4.364;2022-10-17T01:47:45;17.20;99.90
23079;DHT22;11707;50.830;4.364;2022-10-17T01:50:36;17.30;99.90
23079;DHT22;11707;50.830;4.364;2022-10-17T01:53:13;17.30;99.90
23079;DHT22;11707;50.830;4.364;2022-10-17T01:55:43;17.30;99.90
23079;DHT22;11707;50.830;4.364;2022-10-17T01:58:15;17.20;99.90
23079;DHT22;11707;50.830;4.364;2022-10-17T02:00:44;17.30;99.90
23079;DHT22;11707;50.830;4.364;2022-10-17T02:03:14;17.30;99.90
23079;DHT22;11707;50.830;4.364;2022-10-17T02:05:41;17.40;99.90
23079;DHT22;11707;50.830;4.364;2022-10-17T02:08:08;17.50;99.90
23079;DHT22;11707;50.830;4.364;2022-10-17T02:10:56;17.50;99.90
23079;DHT22;11707;50.830;4.364;2022-10-17T02:20:34;17.70;99.90
23079;DHT22;11707;50.830;4.364;2022-10-17T02:27:45;17.70;99.90
23079;DHT22;11707;50.830;4.364;2022-10-17T02:33:13;17.70;99.90
23079;DHT22;11707;50.830;4.364;2022-10-17T02:35:43;17.60;99.90
23079;DHT22;11707;50.830;4.364;2022-10-17T02:38:11;17.60;99.90
23079;DHT22;11707;50.830;4.364;2022-10-17T02:40:39;17.60;99.90
23079;DHT22;11707;50.830;4.364;2022-10-17T02:43:05;17.60;99.90
23079;DHT22;11707;50.830;4.364;2022-10-17T02:45:32;17.70;99.90
23079;DHT22;11707;50.830;4.364;2022-10-17T02:51:19;17.70;99.90
23079;DHT22;11707;50.830;4.364;2022-10-17T02:53:52;17.70;99.90
23079;DHT22;11707;50.830;4.364;2022-10-17T02:56:20;17.70;99.90
23079;DHT22;11707;50.830;4.364;2022-10-17T02:58:50;17.70;99.90
23079;DHT22;11707;50.830;4.364;2022-10-17T03:01:18;17.70;99.90
23079;DHT22;11707;50.830;4.364;2022-10-17T03:03:43;17.80;99.90
23079;DHT22;11707;50.830;4.364;2022-10-17T03:06:09;17.70;99.90
23079;DHT22;11707;50.830;4.364;2022-10-17T03:08:35;17.80;99.90
23079;DHT22;11707;50.830;4.364;2022-10-17T03:11:00;17.80;99.90
23079;DHT22;11707;50.830;4.364;2022-10-17T03:13:28;17.90;99.90
23079;DHT22;11707;50.830;4.364;2022-10-17T03:15:55;17.90;99.90
23079;DHT22;11707;50.830;4.364;2022-10-17T03:18:21;17.80;99.90
23079;DHT22;11707;50.830;4.364;2022-10-17T03:20:47;17.80;99.90
23079;DHT22;11707;50.830;4.364;2022-10-17T03:23:12;17.80;99.90
23079;DHT22;11707;50.830;4.364;2022-10-17T03:25:38;17.90;99.90
23079;DHT22;11707;50.830;4.364;2022-10-17T03:28:04;18.00;99.90
23079;DHT22;11707;50.830;4.364;2022-10-17T03:30:30;18.00;99.90
23079;DHT22;11707;50.830;4.364;2022-10-17T03:32:59;17.90;99.90
23079;DHT22;11707;50.830;4.364;2022-10-17T03:35:25;17.90;99.90
23079;DHT22;11707;50.830;4.364;2022-10-17T03:37:51;17.90;99.90
23079;DHT22;11707;50.830;4.364;2022-10-17T03:40:17;17.90;99.90
23079;DHT22;11707;50.830;4.364;2022-10-17T03:42:43;17.80;99.90
23079;DHT22;11707;50.830;4.364;2022-10-17T03:45:09;17.70;99.90
23079;DHT22;11707;50.830;4.364;2022-10-17T03:47:34;17.90;99.90
23079;DHT22;11707;50.830;4.364;2022-10-17T03:50:00;17.90;99.90
23079;DHT22;11707;50.830;4.364;2022-10-17T03:52:26;17.80;99.90
23079;DHT22;11707;50.830;4.364;2022-10-17T03:54:51;17.80;99.90
23079;DHT22;11707;50.830;4.364;2022-10-17T03:57:18;17.90;99.90
23079;DHT22;11707;50.830;4.364;2022-10-17T03:59:43;17.80;99.90
23079;DHT22;11707;50.830;4.364;2022-10-17T04:02:09;17.80;99.90
23079;DHT22;11707;50.830;4.364;2022-10-17T04:04:35;17.80;99.90
23079;DHT22;11707;50.830;4.364;2022-10-17T04:07:01;17.80;99.90
23079;DHT22;11707;50.830;4.364;2022-10-17T04:09:27;17.70;99.90
23079;DHT22;11707;50.830;4.364;2022-10-17T04:11:53;17.80;99.90
23079;DHT22;11707;50.830;4.364;2022-10-17T04:14:19;17.70;99.90
23079;DHT22;11707;50.830;4.364;2022-10-17T04:16:45;17.70;99.90
23079;DHT22;11707;50.830;4.364;2022-10-17T04:19:11;17.70;99.90
23079;DHT22;11707;50.830;4.364;2022-10-17T04:21:37;17.70;99.90
23079;DHT22;11707;50.830;4.364;2022-10-17T04:24:03;17.60;99.90
23079;DHT22;11707;50.830;4.364;2022-10-17T04:26:29;17.60;99.90
23079;DHT22;11707;50.830;4.364;2022-10-17T04:28:55;17.80;99.90
23079;DHT22;11707;50.830;4.364;2022-10-17T04:31:21;17.80;99.90
23079;DHT22;11707;50.830;4.364;2022-10-17T04:33:48;17.60;99.90
23079;DHT22;11707;50.830;4.364;2022-10-17T04:36:16;17.60;99.90
23079;DHT22;11707;50.830;4.364;2022-10-17T04:38:42;17.50;99.90
23079;DHT22;11707;50.830;4.364;2022-10-17T04:41:13;17.50;99.90
23079;DHT22;11707;50.830;4.364;2022-10-17T04:43:40;17.50;99.90
23079;DHT22;11707;50.830;4.364;2022-10-17T04:46:08;17.50;99.90
23079;DHT22;11707;50.830;4.364;2022-10-17T04:48:34;17.50;99.90
23079;DHT22;11707;50.830;4.364;2022-10-17T04:51:15;17.50;99.90
23079;DHT22;11707;50.830;4.364;2022-10-17T04:53:42;17.50;99.90
23079;DHT22;11707;50.830;4.364;2022-10-17T04:56:14;17.50;99.90
23079;DHT22;11707;50.830;4.364;2022-10-17T04:58:41;17.50;99.90
23079;DHT22;11707;50.830;4.364;2022-10-17T05:01:09;17.50;99.90
23079;DHT22;11707;50.830;4.364;2022-10-17T05:03:35;17.60;99.90
23079;DHT22;11707;50.830;4.364;2022-10-17T05:06:06;17.50;99.90
23079;DHT22;11707;50.830;4.364;2022-10-17T05:08:32;17.50;99.90
23079;DHT22;11707;50.830;4.364;2022-10-17T05:10:58;17.50;99.90
23079;DHT22;11707;50.830;4.364;2022-10-17T05:13:23;17.50;99.90
23079;DHT22;11707;50.830;4.364;2022-10-17T05:15:49;17.50;99.90
23079;DHT22;11707;50.830;4.364;2022-10-17T05:18:15;17.60;99.90
23079;DHT22;11707;50.830;4.364;2022-10-17T05:20:40;17.60;99.90
23079;DHT22;11707;50.830;4.364;2022-10-17T05:23:06;17.70;99.90
23079;DHT22;11707;50.830;4.364;2022-10-17T05:25:32;17.80;99.90
23079;DHT22;11707;50.830;4.364;2022-10-17T05:27:58;17.90;99.90
23079;DHT22;11707;50.830;4.364;2022-10-17T05:30:23;17.90;99.90
23079;DHT22;11707;50.830;4.364;2022-10-17T05:32:53;17.80;99.90
23079;DHT22;11707;50.830;4.364;2022-10-17T05:35:20;17.80;99.90
23079;DHT22;11707;50.830;4.364;2022-10-17T05:37:46;17.90;99.90
23079;DHT22;11707;50.830;4.364;2022-10-17T05:40:12;17.60;99.90
23079;DHT22;11707;50.830;4.364;2022-10-17T05:42:37;17.70;99.90
23079;DHT22;11707;50.830;4.364;2022-10-17T05:45:03;17.80;99.90
23079;DHT22;11707;50.830;4.364;2022-10-17T05:47:29;17.70;99.90
23079;DHT22;11707;50.830;4.364;2022-10-17T05:49:55;17.60;99.90
23079;DHT22;11707;50.830;4.364;2022-10-17T05:52:21;17.70;99.90
23079;DHT22;11707;50.830;4.364;2022-10-17T05:54:46;17.70;99.90
23079;DHT22;11707;50.830;4.364;2022-10-17T05:57:12;17.70;99.90
23079;DHT22;11707;50.830;4.364;2022-10-17T05:59:38;17.70;99.90
23079;DHT22;11707;50.830;4.364;2022-10-17T06:02:03;17.70;99.90
23079;DHT22;11707;50.830;4.364;2022-10-17T06:04:29;17.60;99.90
23079;DHT22;11707;50.830;4.364;2022-10-17T06:06:55;17.60;99.90
23079;DHT22;11707;50.830;4.364;2022-10-17T06:09:21;17.80;99.90
23079;DHT22;11707;50.830;4.364;2022-10-17T06:11:47;17.90;99.90
23079;DHT22;11707;50.830;4.364;2022-10-17T06:14:13;17.80;99.90
23079;DHT22;11707;50.830;4.364;2022-10-17T06:16:38;17.70;99.90
23079;DHT22;11707;50.830;4.364;2022-10-17T06:19:04;17.80;99.90
23079;DHT22;11707;50.830;4.364;2022-10-17T06:21:30;17.80;99.90
23079;DHT22;11707;50.830;4.364;2022-10-17T06:23:59;17.70;99.90
23079;DHT22;11707;50.830;4.364;2022-10-17T06:26:24;17.70;99.90
23079;DHT22;11707;50.830;4.364;2022-10-17T06:28:55;17.70;99.90
23079;DHT22;11707;50.830;4.364;2022-10-17T06:31:21;17.70;99.90
23079;DHT22;11707;50.830;4.364;2022-10-17T06:33:46;17.60;99.90
23079;DHT22;11707;50.830;4.364;2022-10-17T06:36:13;17.70;99.90
23079;DHT22;11707;50.830;4.364;2022-10-17T06:38:39;17.70;99.90
23079;DHT22;11707;50.830;4.364;2022-10-17T06:41:11;17.70;99.90
23079;DHT22;11707;50.830;4.364;2022-10-17T06:43:40;17.60;99.90
23079;DHT22;11707;50.830;4.364;2022-10-17T06:46:07;17.70;99.90
23079;DHT22;11707;50.830;4.364;2022-10-17T06:48:33;17.90;99.90
23079;DHT22;11707;50.830;4.364;2022-10-17T06:51:03;18.00;99.90
23079;DHT22;11707;50.830;4.364;2022-10-17T06:53:31;18.10;99.90
23079;DHT22;11707;50.830;4.364;2022-10-17T06:55:57;18.10;99.90
23079;DHT22;11707;50.830;4.364;2022-10-17T06:58:35;18.30;99.90
23079;DHT22;11707;50.830;4.364;2022-10-17T07:01:08;18.30;99.90
23079;DHT22;11707;50.830;4.364;2022-10-17T07:03:34;18.40;99.90
23079;DHT22;11707;50.830;4.364;2022-10-17T07:06:00;18.30;99.90
23079;DHT22;11707;50.830;4.364;2022-10-17T07:08:26;18.40;99.90
23079;DHT22;11707;50.830;4.364;2022-10-17T07:10:52;18.50;99.90
23079;DHT22;11707;50.830;4.364;2022-10-17T07:13:18;18.20;99.90
23079;DHT22;11707;50.830;4.364;2022-10-17T07:15:44;18.20;99.90
23079;DHT22;11707;50.830;4.364;2022-10-17T07:18:10;18.10;99.90
23079;DHT22;11707;50.830;4.364;2022-10-17T07:20:36;18.00;99.90
23079;DHT22;11707;50.830;4.364;2022-10-17T07:23:02;17.90;99.90
23079;DHT22;11707;50.830;4.364;2022-10-17T07:25:28;17.80;99.90
23079;DHT22;11707;50.830;4.364;2022-10-17T07:27:54;17.80;99.90
23079;DHT22;11707;50.830;4.364;2022-10-17T07:30:21;17.80;99.90
23079;DHT22;11707;50.830;4.364;2022-10-17T07:32:47;17.70;99.90
23079;DHT22;11707;50.830;4.364;2022-10-17T07:35:13;17.50;99.90
23079;DHT22;11707;50.830;4.364;2022-10-17T07:37:39;17.40;99.90
23079;DHT22;11707;50.830;4.364;2022-10-17T07:40:07;17.20;99.90
23079;DHT22;11707;50.830;4.364;2022-10-17T07:42:35;17.10;99.90
23079;DHT22;11707;50.830;4.364;2022-10-17T07:45:02;17.10;99.90
23079;DHT22;11707;50.830;4.364;2022-10-17T07:47:28;17.00;99.90
23079;DHT22;11707;50.830;4.364;2022-10-17T07:49:55;17.00;99.90
23079;DHT22;11707;50.830;4.364;2022-10-17T07:52:21;16.90;99.90
23079;DHT22;11707;50.830;4.364;2022-10-17T07:54:47;16.80;99.90
23079;DHT22;11707;50.830;4.364;2022-10-17T07:57:13;16.90;99.90
23079;DHT22;11707;50.830;4.364;2022-10-17T07:59:39;17.00;99.90
23079;DHT22;11707;50.830;4.364;2022-10-17T08:02:05;17.10;99.90
23079;DHT22;11707;50.830;4.364;2022-10-17T08:04:33;17.10;99.90
23079;DHT22;11707;50.830;4.364;2022-10-17T08:06:59;17.10;99.90
23079;DHT22;11707;50.830;4.364;2022-10-17T08:09:25;17.10;99.90
23079;DHT22;11707;50.830;4.364;2022-10-17T08:11:51;17.10;99.90
23079;DHT22;11707;50.830;4.364;2022-10-17T08:14:16;17.40;99.90
23079;DHT22;11707;50.830;4.364;2022-10-17T08:16:42;17.40;99.90
23079;DHT22;11707;50.830;4.364;2022-10-17T08:19:08;17.60;99.90
23079;DHT22;11707;50.830;4.364;2022-10-17T08:21:36;17.40;99.90
23079;DHT22;11707;50.830;4.364;2022-10-17T08:24:02;17.30;99.90
23079;DHT22;11707;50.830;4.364;2022-10-17T08:26:28;17.40;99.90
23079;DHT22;11707;50.830;4.364;2022-10-17T08:28:55;17.50;99.90
23079;DHT22;11707;50.830;4.364;2022-10-17T08:31:21;17.40;99.90
23079;DHT22;11707;50.830;4.364;2022-10-17T08:33:48;17.40;99.90
23079;DHT22;11707;50.830;4.364;2022-10-17T08:36:17;17.40;99.90
23079;DHT22;11707;50.830;4.364;2022-10-17T08:38:43;17.40;99.90
23079;DHT22;11707;50.830;4.364;2022-10-17T08:46:48;17.60;99.90
23079;DHT22;11707;50.830;4.364;2022-10-17T08:49:33;17.50;99.90
23079;DHT22;11707;50.830;4.364;2022-10-17T08:52:06;17.40;99.90
23079;DHT22;11707;50.830;4.364;2022-10-17T08:54:44;17.60;99.90
23079;DHT22;11707;50.830;4.364;2022-10-17T08:57:13;17.50;99.90
23079;DHT22;11707;50.830;4.364;2022-10-17T08:59:40;17.60;99.90
23079;DHT22;11707;50.830;4.364;2022-10-17T09:14:09;17.60;99.90
23079;DHT22;11707;50.830;4.364;2022-10-17T09:19:38;17.50;99.90
23079;DHT22;11707;50.830;4.364;2022-10-17T09:22:26;17.50;99.90
23079;DHT22;11707;50.830;4.364;2022-10-17T09:24:59;17.50;99.90
23079;DHT22;11707;50.830;4.364;2022-10-17T09:30:42;17.70;99.90
23079;DHT22;11707;50.830;4.364;2022-10-17T09:33:19;17.70;99.90
23079;DHT22;11707;50.830;4.364;2022-10-17T09:35:46;17.80;99.90
23079;DHT22;11707;50.830;4.364;2022-10-17T09:38:16;17.90;99.90
23079;DHT22;11707;50.830;4.364;2022-10-17T09:40:43;17.80;99.90
23079;DHT22;11707;50.830;4.364;2022-10-17T09:43:12;17.80;99.90
23079;DHT22;11707;50.830;4.364;2022-10-17T09:45:50;17.80;99.90
23079;DHT22;11707;50.830;4.364;2022-10-17T09:48:40;17.80;99.90
23079;DHT22;11707;50.830;4.364;2022-10-17T09:51:08;17.80;99.90
23079;DHT22;11707;50.830;4.364;2022-10-17T09:53:40;17.60;99.90
23079;DHT22;11707;50.830;4.364;2022-10-17T09:56:14;17.70;99.90
23079;DHT22;11707;50.830;4.364;2022-10-17T09:58:46;17.60;99.90
23079;DHT22;11707;50.830;4.364;2022-10-17T10:03:43;17.50;99.90
23079;DHT22;11707;50.830;4.364;2022-10-17T10:06:27;17.60;99.90
23079;DHT22;11707;50.830;4.364;2022-10-17T10:08:53;17.70;99.90
23079;DHT22;11707;50.830;4.364;2022-10-17T10:11:42;17.80;99.90
23079;DHT22;11707;50.830;4.364;2022-10-17T10:14:22;17.90;99.90
23079;DHT22;11707;50.830;4.364;2022-10-17T10:16:50;17.80;99.90
23079;DHT22;11707;50.830;4.364;2022-10-17T10:19:25;17.80;99.90
23079;DHT22;11707;50.830;4.364;2022-10-17T10:21:57;17.80;99.90
23079;DHT22;11707;50.830;4.364;2022-10-17T10:24:23;17.70;99.90
23079;DHT22;11707;50.830;4.364;2022-10-17T10:26:51;17.90;99.90
23079;DHT22;11707;50.830;4.364;2022-10-17T10:31:48;18.20;99.90
23079;DHT22;11707;50.830;4.364;2022-10-17T10:34:19;18.30;99.90
23079;DHT22;11707;50.830;4.364;2022-10-17T10:36:47;18.40;99.90
23079;DHT22;11707;50.830;4.364;2022-10-17T10:39:29;18.50;99.90
23079;DHT22;11707;50.830;4.364;2022-10-17T10:41:56;18.60;99.90
23079;DHT22;11707;50.830;4.364;2022-10-17T10:44:25;18.60;99.90
23079;DHT22;11707;50.830;4.364;2022-10-17T10:47:19;18.70;99.90
23079;DHT22;11707;50.830;4.364;2022-10-17T10:49:45;18.60;99.90
23079;DHT22;11707;50.830;4.364;2022-10-17T10:52:30;18.60;99.90
23079;DHT22;11707;50.830;4.364;2022-10-17T10:55:49;18.50;99.90
23079;DHT22;11707;50.830;4.364;2022-10-17T10:57:51;18.50;99.90
23079;DHT22;11707;50.830;4.364;2022-10-17T11:00:21;18.60;99.90
23079;DHT22;11707;50.830;4.364;2022-10-17T11:03:15;18.50;99.90
23079;DHT22;11707;50.830;4.364;2022-10-17T11:05:54;18.40;99.90
23079;DHT22;11707;50.830;4.364;2022-10-17T11:13:50;18.20;99.90
23079;DHT22;11707;50.830;4.364;2022-10-17T11:21:44;18.10;99.90
23079;DHT22;11707;50.830;4.364;2022-10-17T11:26:54;17.90;99.90
23079;DHT22;11707;50.830;4.364;2022-10-17T11:29:59;17.90;99.90
23079;DHT22;11707;50.830;4.364;2022-10-17T11:32:35;17.80;99.90
23079;DHT22;11707;50.830;4.364;2022-10-17T11:35:07;17.70;99.90
23079;DHT22;11707;50.830;4.364;2022-10-17T11:37:43;17.70;99.90
23079;DHT22;11707;50.830;4.364;2022-10-17T11:40:16;17.80;99.90
23079;DHT22;11707;50.830;4.364;2022-10-17T11:43:07;17.80;99.90
23079;DHT22;11707;50.830;4.364;2022-10-17T11:45:39;17.80;99.90
23079;DHT22;11707;50.830;4.364;2022-10-17T11:51:11;18.00;99.90
23079;DHT22;11707;50.830;4.364;2022-10-17T11:54:01;18.10;99.90
23079;DHT22;11707;50.830;4.364;2022-10-17T12:05:20;18.50;99.90
23079;DHT22;11707;50.830;4.364;2022-10-17T12:08:34;18.50;99.90
23079;DHT22;11707;50.830;4.364;2022-10-17T12:18:47;18.50;99.90
23079;DHT22;11707;50.830;4.364;2022-10-17T12:21:13;18.50;99.90
23079;DHT22;11707;50.830;4.364;2022-10-17T12:23:39;18.50;99.90
23079;DHT22;11707;50.830;4.364;2022-10-17T12:26:09;18.40;99.90
23079;DHT22;11707;50.830;4.364;2022-10-17T12:28:48;18.40;99.90
23079;DHT22;11707;50.830;4.364;2022-10-17T12:33:50;18.50;99.90
23079;DHT22;11707;50.830;4.364;2022-10-17T12:38:49;18.30;99.90
23079;DHT22;11707;50.830;4.364;2022-10-17T12:41:16;18.20;99.90
23079;DHT22;11707;50.830;4.364;2022-10-17T12:43:49;18.10;99.90
23079;DHT22;11707;50.830;4.364;2022-10-17T12:46:40;18.00;99.90
23079;DHT22;11707;50.830;4.364;2022-10-17T12:55:14;18.00;99.90
23079;DHT22;11707;50.830;4.364;2022-10-17T12:58:00;17.90;99.90
23079;DHT22;11707;50.830;4.364;2022-10-17T13:03:12;17.90;99.90
23079;DHT22;11707;50.830;4.364;2022-10-17T13:05:41;18.10;99.90
23079;DHT22;11707;50.830;4.364;2022-10-17T13:08:15;18.10;99.90
23079;DHT22;11707;50.830;4.364;2022-10-17T13:10:44;18.20;99.90
23079;DHT22;11707;50.830;4.364;2022-10-17T13:16:04;18.40;99.90
23079;DHT22;11707;50.830;4.364;2022-10-17T13:18:29;18.40;99.90
23079;DHT22;11707;50.830;4.364;2022-10-17T13:21:02;18.30;99.90
23079;DHT22;11707;50.830;4.364;2022-10-17T13:23:35;18.30;99.90
23079;DHT22;11707;50.830;4.364;2022-10-17T13:26:22;18.40;99.90
23079;DHT22;11707;50.830;4.364;2022-10-17T13:29:03;18.40;99.90
23079;DHT22;11707;50.830;4.364;2022-10-17T13:31:30;18.40;99.90
23079;DHT22;11707;50.830;4.364;2022-10-17T13:33:59;18.50;99.90
23079;DHT22;11707;50.830;4.364;2022-10-17T13:36:26;18.50;99.90
23079;DHT22;11707;50.830;4.364;2022-10-17T13:38:52;18.60;99.90
23079;DHT22;11707;50.830;4.364;2022-10-17T13:41:24;18.50;99.90
23079;DHT22;11707;50.830;4.364;2022-10-17T13:43:51;18.50;99.90
23079;DHT22;11707;50.830;4.364;2022-10-17T13:46:27;18.50;99.90
23079;DHT22;11707;50.830;4.364;2022-10-17T13:48:53;18.60;99.90
23079;DHT22;11707;50.830;4.364;2022-10-17T13:51:20;18.50;99.90
23079;DHT22;11707;50.830;4.364;2022-10-17T13:53:46;18.70;99.90
23079;DHT22;11707;50.830;4.364;2022-10-17T14:01:11;18.70;99.90
23079;DHT22;11707;50.830;4.364;2022-10-17T14:03:37;18.90;99.90
23079;DHT22;11707;50.830;4.364;2022-10-17T14:06:11;18.80;99.90
23079;DHT22;11707;50.830;4.364;2022-10-17T14:08:39;18.90;99.90
23079;DHT22;11707;50.830;4.364;2022-10-17T14:11:38;18.80;99.90
23079;DHT22;11707;50.830;4.364;2022-10-17T14:14:18;18.70;99.90
23079;DHT22;11707;50.830;4.364;2022-10-17T14:16:45;18.80;99.90
23079;DHT22;11707;50.830;4.364;2022-10-17T14:19:32;18.80;99.90
23079;DHT22;11707;50.830;4.364;2022-10-17T14:24:51;18.70;99.90
23079;DHT22;11707;50.830;4.364;2022-10-17T14:29:58;18.80;99.90
23079;DHT22;11707;50.830;4.364;2022-10-17T14:32:33;18.90;99.90
23079;DHT22;11707;50.830;4.364;2022-10-17T14:35:01;19.00;99.90
23079;DHT22;11707;50.830;4.364;2022-10-17T14:39:59;19.10;99.90
23079;DHT22;11707;50.830;4.364;2022-10-17T14:42:25;19.00;99.90
23079;DHT22;11707;50.830;4.364;2022-10-17T14:44:53;19.00;99.90
23079;DHT22;11707;50.830;4.364;2022-10-17T14:47:24;18.90;99.90
23079;DHT22;11707;50.830;4.364;2022-10-17T14:50:05;18.90;99.90
23079;DHT22;11707;50.830;4.364;2022-10-17T14:52:32;18.90;99.90
23079;DHT22;11707;50.830;4.364;2022-10-17T14:55:10;18.90;99.90
23079;DHT22;11707;50.830;4.364;2022-10-17T14:57:44;18.80;99.90
23079;DHT22;11707;50.830;4.364;2022-10-17T15:00:17;18.70;99.90
23079;DHT22;11707;50.830;4.364;2022-10-17T15:02:44;18.80;99.90
23079;DHT22;11707;50.830;4.364;2022-10-17T15:05:10;18.80;99.90
23079;DHT22;11707;50.830;4.364;2022-10-17T15:07:36;18.90;99.90
23079;DHT22;11707;50.830;4.364;2022-10-17T15:10:02;18.80;99.90
23079;DHT22;11707;50.830;4.364;2022-10-17T15:12:28;18.90;99.90
23079;DHT22;11707;50.830;4.364;2022-10-17T15:14:55;19.00;99.90
23079;DHT22;11707;50.830;4.364;2022-10-17T15:17:28;19.10;99.90
23079;DHT22;11707;50.830;4.364;2022-10-17T15:19:54;19.30;99.90
23079;DHT22;11707;50.830;4.364;2022-10-17T15:22:20;19.30;99.90
23079;DHT22;11707;50.830;4.364;2022-10-17T15:24:46;19.10;99.90
23079;DHT22;11707;50.830;4.364;2022-10-17T15:27:21;19.20;99.90
23079;DHT22;11707;50.830;4.364;2022-10-17T15:29:48;19.00;99.90
23079;DHT22;11707;50.830;4.364;2022-10-17T15:32:14;19.20;99.90
23079;DHT22;11707;50.830;4.364;2022-10-17T15:34:40;19.30;99.90
23079;DHT22;11707;50.830;4.364;2022-10-17T15:37:20;19.30;99.90
23079;DHT22;11707;50.830;4.364;2022-10-17T15:39:55;19.10;99.90
23079;DHT22;11707;50.830;4.364;2022-10-17T15:42:25;19.00;99.90
23079;DHT22;11707;50.830;4.364;2022-10-17T15:44:52;19.00;99.90
23079;DHT22;11707;50.830;4.364;2022-10-17T15:47:23;18.90;99.90
23079;DHT22;11707;50.830;4.364;2022-10-17T15:49:49;18.80;99.90
23079;DHT22;11707;50.830;4.364;2022-10-17T15:52:14;18.70;99.90
23079;DHT22;11707;50.830;4.364;2022-10-17T15:54:40;18.80;99.90
23079;DHT22;11707;50.830;4.364;2022-10-17T15:57:18;18.90;99.90
23079;DHT22;11707;50.830;4.364;2022-10-17T15:59:45;19.10;99.90
23079;DHT22;11707;50.830;4.364;2022-10-17T16:02:13;19.20;99.90
23079;DHT22;11707;50.830;4.364;2022-10-17T16:04:39;19.30;99.90
23079;DHT22;11707;50.830;4.364;2022-10-17T16:07:06;19.30;99.90
23079;DHT22;11707;50.830;4.364;2022-10-17T16:09:33;19.30;99.90
23079;DHT22;11707;50.830;4.364;2022-10-17T16:12:00;19.30;99.90
23079;DHT22;11707;50.830;4.364;2022-10-17T16:14:26;19.00;99.90
23079;DHT22;11707;50.830;4.364;2022-10-17T16:16:52;19.10;99.90
23079;DHT22;11707;50.830;4.364;2022-10-17T16:19:17;19.00;99.90
23079;DHT22;11707;50.830;4.364;2022-10-17T16:21:43;19.00;99.90
23079;DHT22;11707;50.830;4.364;2022-10-17T16:24:10;18.80;99.90
23079;DHT22;11707;50.830;4.364;2022-10-17T16:26:39;18.80;99.90
23079;DHT22;11707;50.830;4.364;2022-10-17T16:29:05;19.00;99.90
23079;DHT22;11707;50.830;4.364;2022-10-17T16:31:33;18.90;99.90
23079;DHT22;11707;50.830;4.364;2022-10-17T16:34:00;18.90;99.90
23079;DHT22;11707;50.830;4.364;2022-10-17T16:36:26;18.80;99.90
23079;DHT22;11707;50.830;4.364;2022-10-17T16:38:52;18.90;99.90
23079;DHT22;11707;50.830;4.364;2022-10-17T16:41:31;19.00;99.90
23079;DHT22;11707;50.830;4.364;2022-10-17T16:44:00;18.90;99.90
23079;DHT22;11707;50.830;4.364;2022-10-17T16:46:28;18.80;99.90
23079;DHT22;11707;50.830;4.364;2022-10-17T16:48:54;18.40;99.90
23079;DHT22;11707;50.830;4.364;2022-10-17T16:51:20;18.40;99.90
23079;DHT22;11707;50.830;4.364;2022-10-17T16:53:47;18.50;99.90
23079;DHT22;11707;50.830;4.364;2022-10-17T16:56:17;18.30;99.90
23079;DHT22;11707;50.830;4.364;2022-10-17T16:58:43;18.20;99.90
23079;DHT22;11707;50.830;4.364;2022-10-17T17:01:11;18.20;99.90
23079;DHT22;11707;50.830;4.364;2022-10-17T17:03:39;18.10;99.90
23079;DHT22;11707;50.830;4.364;2022-10-17T17:06:07;18.30;99.90
23079;DHT22;11707;50.830;4.364;2022-10-17T17:08:33;18.40;99.90
23079;DHT22;11707;50.830;4.364;2022-10-17T17:11:02;18.40;99.90
23079;DHT22;11707;50.830;4.364;2022-10-17T17:13:30;18.30;99.90
23079;DHT22;11707;50.830;4.364;2022-10-17T17:16:07;18.30;99.90
23079;DHT22;11707;50.830;4.364;2022-10-17T17:18:33;18.30;99.90
23079;DHT22;11707;50.830;4.364;2022-10-17T17:21:01;18.10;99.90
23079;DHT22;11707;50.830;4.364;2022-10-17T17:23:27;18.10;99.90
23079;DHT22;11707;50.830;4.364;2022-10-17T17:26:04;18.10;99.90
23079;DHT22;11707;50.830;4.364;2022-10-17T17:28:31;18.20;99.90
23079;DHT22;11707;50.830;4.364;2022-10-17T17:30:57;18.10;99.90
23079;DHT22;11707;50.830;4.364;2022-10-17T17:33:23;18.20;99.90
23079;DHT22;11707;50.830;4.364;2022-10-17T17:36:00;18.10;99.90
23079;DHT22;11707;50.830;4.364;2022-10-17T17:38:30;18.10;99.90
23079;DHT22;11707;50.830;4.364;2022-10-17T17:40:56;17.90;99.90
23079;DHT22;11707;50.830;4.364;2022-10-17T17:43:22;17.80;99.90
23079;DHT22;11707;50.830;4.364;2022-10-17T17:45:48;17.80;99.90
23079;DHT22;11707;50.830;4.364;2022-10-17T17:48:14;17.70;99.90
23079;DHT22;11707;50.830;4.364;2022-10-17T17:50:41;17.70;99.90
23079;DHT22;11707;50.830;4.364;2022-10-17T17:53:08;17.60;99.90
23079;DHT22;11707;50.830;4.364;2022-10-17T17:55:35;17.50;99.90